Time;durP1;ratioP1;P1;durP2;ratioP2;P2;SDS_P1;SDS_P2;PMS_P1;PMS_P2;Temp;Humidity;BMP_temperature;BMP_pressure;BME280_temperature;BME280_humidity;BME280_pressure;Samples;Min_cycle;Max_cycle;Signal;HPM_P1;HPM_P2
2023/03/26 00:02:38;;;;;;;7.63;3.72;;;;;;;;;;10365198;28;20486;-53
2023/03/26 00:07:40;;;;;;;5.20;3.47;;;;;;;;;;10368482;28;20037;-52
2023/03/26 00:12:40;;;;;;;10.30;3.60;;;;;;;;;;10350652;28;20080;-52
2023/03/26 00:17:41;;;;;;;8.50;2.97;;;;;;;;;;10359041;28;20096;-53
2023/03/26 00:22:41;;;;;;;7.07;3.10;;;;;;;;;;10364237;28;20029;-53
2023/03/26 00:27:44;;;;;;;5.28;3.47;;;;;;;;;;10343475;28;20434;-54
2023/03/26 00:32:45;;;;;;;7.63;3.28;;;;;;;;;;10351933;28;20181;-53
2023/03/26 00:37:45;;;;;;;5.85;3.30;;;;;;;;;;10351416;28;20181;-54
2023/03/26 00:42:46;;;;;;;9.90;3.40;;;;;;;;;;10351278;28;20166;-55
2023/03/26 00:47:47;;;;;;;6.35;2.92;;;;;;;;;;10360152;28;20386;-52
2023/03/26 00:52:47;;;;;;;5.40;3.47;;;;;;;;;;10348608;28;20394;-57
2023/03/26 00:57:48;;;;;;;6.22;3.00;;;;;;;;;;10377310;28;20036;-58
2023/03/26 01:02:49;;;;;;;4.32;3.33;;;;;;;;;;10372571;28;20064;-58
2023/03/26 01:07:50;;;;;;;7.13;3.25;;;;;;;;;;10376841;28;20026;-52
2023/03/26 01:12:51;;;;;;;11.48;3.42;;;;;;;;;;10360150;28;20554;-49
2023/03/26 01:17:56;;;;;;;5.63;3.00;;;;;;;;;;10368730;28;20037;-52
2023/03/26 01:23:06;;;;;;;8.82;3.20;;;;;;;;;;10373227;28;20505;-51
2023/03/26 01:28:08;;;;;;;16.52;3.38;;;;;;;;;;10359793;28;20062;-51
2023/03/26 01:34:11;;;;;;;9.98;3.25;;;;;;;;;;10355972;28;20060;-51
2023/03/26 01:39:24;;;;;;;6.82;3.40;;;;;;;;;;10256609;28;20486;-52
2023/03/26 01:44:48;;;;;;;4.28;2.92;;;;;;;;;;10354916;28;20028;-52
2023/03/26 01:49:49;;;;;;;4.72;2.85;;;;;;;;;;10336547;28;20511;-49
2023/03/26 01:54:51;;;;;;;6.28;3.35;;;;;;;;;;10355091;28;20077;-51
2023/03/26 02:00:39;;;;;;;6.00;3.25;;;;;;;;;;10361328;28;20022;-52
2023/03/26 02:06:16;;;;;;;5.80;2.45;;;;;;;;;;10341755;28;20037;-51
2023/03/26 02:11:17;;;;;;;6.80;3.22;;;;;;;;;;10369537;28;20033;-53
2023/03/26 02:16:19;;;;;;;10.52;3.15;;;;;;;;;;10341298;28;20401;-51
2023/03/26 02:21:24;;;;;;;4.72;2.80;;;;;;;;;;10356682;28;20437;-53
2023/03/26 02:26:25;;;;;;;4.72;2.70;;;;;;;;;;10359223;28;20485;-50
2023/03/26 02:31:26;;;;;;;4.18;2.75;;;;;;;;;;10358260;28;20046;-52
2023/03/26 02:36:27;;;;;;;4.68;2.60;;;;;;;;;;10356614;28;20046;-53
2023/03/26 02:41:27;;;;;;;2.92;2.55;;;;;;;;;;10365682;28;20034;-51
2023/03/26 02:46:28;;;;;;;5.15;2.67;;;;;;;;;;10356557;28;20030;-50
2023/03/26 02:51:28;;;;;;;3.17;2.67;;;;;;;;;;10343167;28;20495;-50
2023/03/26 02:56:29;;;;;;;3.85;2.67;;;;;;;;;;10350553;28;20475;-53
2023/03/26 03:01:33;;;;;;;4.53;2.88;;;;;;;;;;10356493;28;20040;-51
2023/03/26 03:06:34;;;;;;;2.75;2.35;;;;;;;;;;10366702;28;20068;-52
2023/03/26 03:11:35;;;;;;;10.50;2.95;;;;;;;;;;10353173;28;20033;-54
2023/03/26 03:16:35;;;;;;;7.30;2.90;;;;;;;;;;10339565;28;20037;-49
2023/03/26 03:21:36;;;;;;;3.40;2.45;;;;;;;;;;10351622;28;20034;-53
2023/03/26 03:26:37;;;;;;;4.10;2.70;;;;;;;;;;10345657;28;20014;-53
2023/03/26 03:31:37;;;;;;;3.67;2.28;;;;;;;;;;10350935;28;20543;-52
2023/03/26 03:36:38;;;;;;;4.95;2.60;;;;;;;;;;10356258;28;20026;-53
2023/03/26 03:41:38;;;;;;;3.75;2.65;;;;;;;;;;10362442;28;20026;-51
2023/03/26 03:46:39;;;;;;;5.85;2.88;;;;;;;;;;10368244;28;20018;-50
2023/03/26 03:51:39;;;;;;;2.80;2.20;;;;;;;;;;10363864;28;20046;-52
2023/03/26 03:56:40;;;;;;;3.45;2.50;;;;;;;;;;10367513;28;20030;-52
2023/03/26 04:01:45;;;;;;;3.35;2.40;;;;;;;;;;10349969;28;20038;-52
2023/03/26 04:06:46;;;;;;;3.42;2.53;;;;;;;;;;10354185;28;20026;-52
2023/03/26 04:11:46;;;;;;;4.00;2.67;;;;;;;;;;10365594;28;20414;-50
2023/03/26 04:16:48;;;;;;;2.92;2.28;;;;;;;;;;10356081;28;20044;-52
2023/03/26 04:21:48;;;;;;;3.85;2.40;;;;;;;;;;10367209;28;20543;-52
2023/03/26 04:26:49;;;;;;;5.45;2.50;;;;;;;;;;10366643;28;20037;-52
2023/03/26 04:31:57;;;;;;;2.95;2.35;;;;;;;;;;10375547;28;20033;-53
2023/03/26 04:36:59;;;;;;;4.22;2.30;;;;;;;;;;10364453;28;20061;-54
2023/03/26 04:42:00;;;;;;;3.63;2.65;;;;;;;;;;10374012;28;20412;-53
2023/03/26 04:47:00;;;;;;;2.58;2.35;;;;;;;;;;10373131;28;20065;-53
2023/03/26 04:52:01;;;;;;;3.05;2.20;;;;;;;;;;10364248;28;20054;-49
2023/03/26 04:57:08;;;;;;;7.90;2.28;;;;;;;;;;10359505;28;20069;-50
2023/03/26 05:02:11;;;;;;;3.63;2.10;;;;;;;;;;10347913;28;20034;-59
2023/03/26 05:07:22;;;;;;;2.33;2.10;;;;;;;;;;10363758;28;20161;-52
2023/03/26 05:12:23;;;;;;;3.05;2.20;;;;;;;;;;10357141;28;20042;-53
2023/03/26 05:17:24;;;;;;;2.70;2.30;;;;;;;;;;10372645;28;20029;-52
2023/03/26 05:22:24;;;;;;;2.90;2.22;;;;;;;;;;10368927;28;20053;-53
2023/03/26 05:27:25;;;;;;;2.40;2.08;;;;;;;;;;10350508;28;20026;-52
2023/03/26 05:32:25;;;;;;;2.10;1.95;;;;;;;;;;10350685;28;20044;-53
2023/03/26 05:37:29;;;;;;;2.80;2.08;;;;;;;;;;10360965;28;20033;-53
2023/03/26 05:42:30;;;;;;;3.10;2.00;;;;;;;;;;10371181;28;20502;-53
2023/03/26 05:47:31;;;;;;;2.80;2.13;;;;;;;;;;10357886;28;20161;-53
2023/03/26 05:52:32;;;;;;;2.50;2.30;;;;;;;;;;10357559;28;20050;-52
2023/03/26 05:57:34;;;;;;;4.00;2.35;;;;;;;;;;10347053;28;20046;-53
2023/03/26 06:02:35;;;;;;;3.72;1.98;;;;;;;;;;10367453;28;20022;-53
2023/03/26 06:07:35;;;;;;;2.75;2.10;;;;;;;;;;10360409;28;20023;-53
2023/03/26 06:12:36;;;;;;;2.50;2.00;;;;;;;;;;10367049;28;20018;-54
2023/03/26 06:17:37;;;;;;;1.70;1.60;;;;;;;;;;10361702;28;20209;-53
2023/03/26 06:22:37;;;;;;;1.73;1.63;;;;;;;;;;10351878;28;20516;-53
2023/03/26 06:27:38;;;;;;;3.10;1.85;;;;;;;;;;10368790;28;20381;-52
2023/03/26 06:32:38;;;;;;;2.17;1.98;;;;;;;;;;10366672;28;20076;-53
2023/03/26 06:37:39;;;;;;;3.28;1.80;;;;;;;;;;10361370;28;20025;-53
2023/03/26 06:42:40;;;;;;;2.28;2.08;;;;;;;;;;10345394;28;20025;-51
2023/03/26 06:47:40;;;;;;;2.08;1.88;;;;;;;;;;10366363;28;20030;-51
2023/03/26 06:52:41;;;;;;;3.60;1.80;;;;;;;;;;10371877;28;20049;-53
2023/03/26 06:57:44;;;;;;;2.17;1.95;;;;;;;;;;10358619;28;20038;-51
2023/03/26 07:02:44;;;;;;;5.75;2.13;;;;;;;;;;10351496;28;20398;-50
2023/03/26 07:07:47;;;;;;;5.90;2.20;;;;;;;;;;10347251;28;20037;-53
2023/03/26 07:12:48;;;;;;;2.22;2.00;;;;;;;;;;10357845;28;20026;-55
2023/03/26 07:17:48;;;;;;;4.28;2.20;;;;;;;;;;10343508;28;20034;-53
2023/03/26 07:22:50;;;;;;;1.63;1.50;;;;;;;;;;10343851;28;20182;-52
2023/03/26 07:28:23;;;;;;;2.30;2.10;;;;;;;;;;10362263;28;20028;-49
2023/03/26 07:34:03;;;;;;;2.22;2.03;;;;;;;;;;10342853;28;20038;-52
2023/03/26 07:39:18;;;;;;;2.60;1.98;;;;;;;;;;10354182;28;20071;-50
2023/03/26 07:45:10;;;;;;;2.20;2.00;;;;;;;;;;10358148;28;20030;-51
2023/03/26 07:50:16;;;;;;;6.13;2.40;;;;;;;;;;10344420;28;20478;-51
2023/03/26 07:55:18;;;;;;;3.65;2.70;;;;;;;;;;10354733;28;20090;-50
2023/03/26 08:00:25;;;;;;;7.20;3.00;;;;;;;;;;10359155;28;20018;-50
2023/03/26 08:05:36;;;;;;;3.53;2.80;;;;;;;;;;10364453;28;20041;-50
2023/03/26 08:11:06;;;;;;;5.28;2.80;;;;;;;;;;10374853;28;20021;-51
2023/03/26 08:16:22;;;;;;;7.00;2.75;;;;;;;;;;10373881;28;20037;-53
2023/03/26 08:21:40;;;;;;;6.75;2.90;;;;;;;;;;10372486;28;20558;-50
2023/03/26 08:27:07;;;;;;;3.28;2.60;;;;;;;;;;10374617;28;20501;-50
2023/03/26 08:32:19;;;;;;;5.50;3.03;;;;;;;;;;10362483;28;20500;-52
2023/03/26 08:37:20;;;;;;;4.22;2.70;;;;;;;;;;10362815;28;20028;-50
2023/03/26 08:43:17;;;;;;;3.90;2.63;;;;;;;;;;10361101;28;20026;-52
2023/03/26 08:49:07;;;;;;;5.40;2.83;;;;;;;;;;10207058;29;20042;-52
2023/03/26 08:54:46;;;;;;;3.40;2.80;;;;;;;;;;10205703;28;20040;-51
2023/03/26 09:00:18;;;;;;;;;;;;;;;;;;10202678;29;20450;-52
2023/03/26 09:05:55;;;;;;;3.53;2.70;;;;;;;;;;10186667;29;19982;-52
2023/03/26 09:11:31;;;;;;;4.38;2.50;;;;;;;;;;10208733;29;20039;-55
2023/03/26 09:17:02;;;;;;;9.45;2.65;;;;;;;;;;10250213;28;20081;-51
2023/03/26 09:22:46;;;;;;;6.80;2.67;;;;;;;;;;10349616;28;20030;-51
2023/03/26 09:28:28;;;;;;;4.78;3.15;;;;;;;;;;10363027;28;20022;-53
2023/03/26 09:34:12;;;;;;;3.70;3.35;;;;;;;;;;10357302;28;20018;-55
2023/03/26 09:39:30;;;;;;;4.80;3.55;;;;;;;;;;10372541;28;20463;-53
2023/03/26 09:44:50;;;;;;;;;;;;;;;;;;10338759;28;20430;-51
2023/03/26 09:50:23;;;;;;;7.40;3.63;;;;;;;;;;10360317;28;19917;-51
2023/03/26 09:56:11;;;;;;;4.05;3.38;;;;;;;;;;10354544;28;20133;-53
2023/03/26 10:01:30;;;;;;;4.13;3.45;;;;;;;;;;10350258;28;20056;-51
2023/03/26 10:07:03;;;;;;;8.07;3.20;;;;;;;;;;10360397;28;20034;-52
2023/03/26 10:12:36;;;;;;;7.60;3.22;;;;;;;;;;10341037;28;20025;-52
2023/03/26 10:18:10;;;;;;;3.40;3.00;;;;;;;;;;10356948;28;20034;-52
2023/03/26 10:23:23;;;;;;;3.80;3.33;;;;;;;;;;10352660;28;20030;-49
2023/03/26 10:28:52;;;;;;;4.55;3.10;;;;;;;;;;10356753;28;20057;-50
2023/03/26 10:34:54;;;;;;;5.15;3.10;;;;;;;;;;10368821;28;20068;-51
2023/03/26 10:40:22;;;;;;;4.40;3.10;;;;;;;;;;10185487;28;20438;-52
2023/03/26 10:45:37;;;;;;;3.80;2.85;;;;;;;;;;10204140;29;20500;-54
2023/03/26 10:51:15;;;;;;;5.10;2.90;;;;;;;;;;10201460;28;20031;-53
2023/03/26 10:56:34;;;;;;;5.20;2.70;;;;;;;;;;10202452;29;20570;-50
2023/03/26 11:02:03;;;;;;;4.75;2.85;;;;;;;;;;10191450;29;20528;-50
2023/03/26 11:07:22;;;;;;;3.30;2.70;;;;;;;;;;10201213;29;20027;-51
2023/03/26 11:13:05;;;;;;;3.58;2.65;;;;;;;;;;10276568;28;20103;-51
2023/03/26 11:19:01;;;;;;;4.65;2.88;;;;;;;;;;10348664;28;20033;-51
2023/03/26 11:24:53;;;;;;;4.40;3.03;;;;;;;;;;10362100;28;20362;-50
2023/03/26 11:30:27;;;;;;;3.40;2.65;;;;;;;;;;10359335;28;20494;-50
2023/03/26 11:35:34;;;;;;;3.75;2.70;;;;;;;;;;10364044;28;20038;-52
2023/03/26 11:40:40;;;;;;;3.22;2.40;;;;;;;;;;10348470;28;20041;-51
2023/03/26 11:45:45;;;;;;;5.10;2.90;;;;;;;;;;10360703;28;20028;-51
2023/03/26 11:50:52;;;;;;;10.45;3.33;;;;;;;;;;10354929;28;20091;-57
2023/03/26 11:56:41;;;;;;;13.85;3.95;;;;;;;;;;10343424;28;20034;-48
2023/03/26 12:01:57;;;;;;;6.20;3.30;;;;;;;;;;10314255;28;20437;-51
2023/03/26 12:07:31;;;;;;;6.20;3.35;;;;;;;;;;10361213;28;20037;-50
2023/03/26 12:12:34;;;;;;;7.18;3.20;;;;;;;;;;10366707;28;20382;-51
2023/03/26 12:17:41;;;;;;;7.20;3.38;;;;;;;;;;10364019;28;20504;-52
2023/03/26 12:22:42;;;;;;;6.07;3.30;;;;;;;;;;10362482;28;20029;-52
2023/03/26 12:27:48;;;;;;;5.82;3.00;;;;;;;;;;10366659;28;20447;-50
2023/03/26 12:32:52;;;;;;;6.35;3.22;;;;;;;;;;10354454;28;20065;-52
2023/03/26 12:37:56;;;;;;;6.68;3.25;;;;;;;;;;10338704;28;20053;-50
2023/03/26 12:43:03;;;;;;;5.40;3.13;;;;;;;;;;10355606;28;20049;-50
2023/03/26 12:48:05;;;;;;;4.10;2.80;;;;;;;;;;10362262;28;20520;-51
2023/03/26 12:53:50;;;;;;;7.35;3.03;;;;;;;;;;10362130;28;20122;-49
2023/03/26 12:59:17;;;;;;;6.65;3.17;;;;;;;;;;10341486;28;20486;-51
2023/03/26 13:04:36;;;;;;;2.78;2.58;;;;;;;;;;10353863;28;20030;-48
2023/03/26 13:09:59;;;;;;;5.85;3.00;;;;;;;;;;10355156;28;20355;-51
2023/03/26 13:15:02;;;;;;;4.47;2.80;;;;;;;;;;10367187;28;20077;-51
2023/03/26 13:20:15;;;;;;;6.25;3.35;;;;;;;;;;10356900;28;20095;-50
2023/03/26 13:25:46;;;;;;;4.57;2.53;;;;;;;;;;10332422;28;20100;-50
2023/03/26 13:31:23;;;;;;;3.60;3.10;;;;;;;;;;10357630;28;20026;-50
2023/03/26 13:36:54;;;;;;;4.30;2.72;;;;;;;;;;10370953;28;20033;-55
2023/03/26 13:42:07;;;;;;;3.25;2.80;;;;;;;;;;10367977;28;20493;-50
2023/03/26 13:47:17;;;;;;;6.40;3.40;;;;;;;;;;10367415;28;20026;-50
2023/03/26 13:52:47;;;;;;;6.07;3.25;;;;;;;;;;10332102;28;20045;-51
2023/03/26 13:58:23;;;;;;;6.40;3.28;;;;;;;;;;10366837;28;20029;-49
2023/03/26 14:03:56;;;;;;;4.90;3.58;;;;;;;;;;10354067;28;20138;-52
2023/03/26 14:09:09;;;;;;;4.82;2.90;;;;;;;;;;10360611;28;20053;-52
2023/03/26 14:14:24;;;;;;;5.50;2.90;;;;;;;;;;10333600;28;20122;-51
2023/03/26 14:19:28;;;;;;;4.35;2.67;;;;;;;;;;10338587;28;20044;-49
2023/03/26 14:24:57;;;;;;;3.50;2.60;;;;;;;;;;10365702;28;20197;-47
2023/03/26 14:30:16;;;;;;;15.70;3.08;;;;;;;;;;10365507;28;20034;-52
2023/03/26 14:35:38;;;;;;;13.65;4.65;;;;;;;;;;10337172;28;20054;-53
2023/03/26 14:40:56;;;;;;;10.90;4.15;;;;;;;;;;10366029;28;20496;-52
2023/03/26 14:46:20;;;;;;;13.15;3.95;;;;;;;;;;10355210;28;20058;-51
2023/03/26 14:51:46;;;;;;;12.23;4.25;;;;;;;;;;10385447;23;20136;-51
2023/03/26 14:56:59;;;;;;;10.80;4.15;;;;;;;;;;10402052;28;20116;-54
2023/03/26 15:02:41;;;;;;;7.93;3.25;;;;;;;;;;10403716;28;20029;-52
2023/03/26 15:08:22;;;;;;;7.47;3.40;;;;;;;;;;10400266;28;20067;-58
2023/03/26 15:14:30;;;;;;;6.80;3.40;;;;;;;;;;10263826;28;20561;-53
2023/03/26 15:20:10;;;;;;;7.15;3.40;;;;;;;;;;10257804;28;20632;-59
2023/03/26 15:25:35;;;;;;;7.68;3.28;;;;;;;;;;10276214;28;20562;-54
2023/03/26 15:31:05;;;;;;;8.07;3.30;;;;;;;;;;10279641;28;20039;-56
2023/03/26 15:36:52;;;;;;;7.80;3.42;;;;;;;;;;10269328;28;20121;-55
2023/03/26 15:42:40;;;;;;;5.57;3.13;;;;;;;;;;10242093;28;20035;-53
2023/03/26 15:48:17;;;;;;;;;;;;;;;;;;10214260;29;20419;-55
2023/03/26 15:53:53;;;;;;;23.73;3.95;;;;;;;;;;10229661;28;19918;-55
2023/03/26 15:59:30;;;;;;;12.00;4.32;;;;;;;;;;10220098;29;20147;-55
2023/03/26 16:05:21;;;;;;;12.40;5.00;;;;;;;;;;10224772;29;20051;-54
2023/03/26 16:10:46;;;;;;;13.60;3.28;;;;;;;;;;10208426;29;20195;-51
2023/03/26 16:16:02;;;;;;;18.08;4.18;;;;;;;;;;10278000;28;20639;-51
2023/03/26 16:21:29;;;;;;;8.25;3.88;;;;;;;;;;10408016;28;20038;-54
2023/03/26 16:27:06;;;;;;;10.45;3.58;;;;;;;;;;10415901;28;20038;-53
2023/03/26 16:32:27;;;;;;;10.60;3.63;;;;;;;;;;10413078;28;20029;-53
2023/03/26 16:37:37;;;;;;;14.38;3.47;;;;;;;;;;10389628;28;20040;-52
2023/03/26 16:42:41;;;;;;;8.68;3.33;;;;;;;;;;10415401;28;20386;-53
2023/03/26 16:48:03;;;;;;;10.75;3.67;;;;;;;;;;10396074;28;20128;-50
2023/03/26 16:53:28;;;;;;;8.25;3.22;;;;;;;;;;10404714;28;20041;-53
2023/03/26 16:58:57;;;;;;;6.50;3.38;;;;;;;;;;10383031;28;20124;-52
2023/03/26 17:04:05;;;;;;;9.73;3.70;;;;;;;;;;10412357;28;20677;-51
2023/03/26 17:09:43;;;;;;;9.55;3.40;;;;;;;;;;10275251;28;20026;-50
2023/03/26 17:15:06;;;;;;;8.48;3.33;;;;;;;;;;10372168;28;20084;-57
2023/03/26 17:20:43;;;;;;;6.18;3.13;;;;;;;;;;10382049;28;20037;-51
2023/03/26 17:26:04;;;;;;;4.72;3.03;;;;;;;;;;10384928;28;20366;-57
2023/03/26 17:31:31;;;;;;;6.90;3.00;;;;;;;;;;10318118;28;20037;-52
2023/03/26 17:36:42;;;;;;;9.55;3.40;;;;;;;;;;10370045;28;20026;-53
2023/03/26 17:42:13;;;;;;;5.85;2.85;;;;;;;;;;10386571;28;20026;-49
2023/03/26 17:47:38;;;;;;;4.88;2.80;;;;;;;;;;10362795;28;20037;-54
2023/03/26 17:53:01;;;;;;;6.72;3.17;;;;;;;;;;10331763;28;20775;-54
2023/03/26 17:58:16;;;;;;;8.07;2.60;;;;;;;;;;10400859;28;20069;-54
2023/03/26 18:03:27;;;;;;;4.68;2.92;;;;;;;;;;10413138;28;20026;-52
2023/03/26 18:09:07;;;;;;;8.18;2.40;;;;;;;;;;10394350;28;20472;-52
2023/03/26 18:14:47;;;;;;;5.32;3.05;;;;;;;;;;10387405;28;20516;-53
2023/03/26 18:19:54;;;;;;;4.30;2.20;;;;;;;;;;10397672;28;20845;-53
2023/03/26 18:25:01;;;;;;;6.10;3.08;;;;;;;;;;10408493;28;20064;-54
2023/03/26 18:30:16;;;;;;;4.47;2.72;;;;;;;;;;10402153;28;20065;-52
2023/03/26 18:35:19;;;;;;;6.00;3.03;;;;;;;;;;10404628;28;20033;-50
2023/03/26 18:40:23;;;;;;;28.75;2.80;;;;;;;;;;10365433;28;20058;-52
2023/03/26 18:45:32;;;;;;;8.50;2.90;;;;;;;;;;10404178;28;20029;-51
2023/03/26 18:50:38;;;;;;;4.10;2.65;;;;;;;;;;10401056;28;20037;-51
2023/03/26 18:55:39;;;;;;;7.13;3.25;;;;;;;;;;10374852;28;20044;-51
2023/03/26 19:00:41;;;;;;;6.43;2.40;;;;;;;;;;10394501;28;20060;-53
2023/03/26 19:05:42;;;;;;;6.03;2.80;;;;;;;;;;10392484;28;20030;-52
2023/03/26 19:10:46;;;;;;;3.88;2.35;;;;;;;;;;10405564;28;20030;-51
2023/03/26 19:15:52;;;;;;;9.18;3.25;;;;;;;;;;10387889;28;20040;-52
2023/03/26 19:20:57;;;;;;;4.80;2.38;;;;;;;;;;10384767;28;20082;-50
2023/03/26 19:26:03;;;;;;;10.73;2.55;;;;;;;;;;10383581;28;20069;-49
2023/03/26 19:31:14;;;;;;;4.57;2.58;;;;;;;;;;10390877;28;20021;-54
2023/03/26 19:36:28;;;;;;;5.07;2.55;;;;;;;;;;10401909;28;20067;-52
2023/03/26 19:41:42;;;;;;;5.35;2.08;;;;;;;;;;10391996;28;20068;-54
2023/03/26 19:46:45;;;;;;;5.25;2.50;;;;;;;;;;10400859;28;20490;-55
2023/03/26 19:51:52;;;;;;;6.65;2.25;;;;;;;;;;10392842;28;20045;-55
2023/03/26 19:56:52;;;;;;;4.93;2.65;;;;;;;;;;10387707;28;20045;-54
2023/03/26 20:01:53;;;;;;;9.45;2.50;;;;;;;;;;10411234;28;20342;-51
2023/03/26 20:06:54;;;;;;;7.43;2.47;;;;;;;;;;10433887;28;20507;-52
2023/03/26 20:11:55;;;;;;;4.43;2.15;;;;;;;;;;10455815;28;20033;-51
2023/03/26 20:16:56;;;;;;;7.50;2.40;;;;;;;;;;10437737;28;20465;-52
2023/03/26 20:21:57;;;;;;;5.88;2.22;;;;;;;;;;10460363;28;20033;-53
2023/03/26 20:26:57;;;;;;;9.13;2.33;;;;;;;;;;10445311;28;20032;-54
2023/03/26 20:31:58;;;;;;;4.38;2.60;;;;;;;;;;10455773;28;20037;-54
2023/03/26 20:36:59;;;;;;;4.07;2.20;;;;;;;;;;10449314;28;20032;-51
2023/03/26 20:41:59;;;;;;;2.72;1.90;;;;;;;;;;10456376;28;20032;-63
2023/03/26 20:47:00;;;;;;;4.85;2.53;;;;;;;;;;10457860;28;20626;-51
2023/03/26 20:52:01;;;;;;;2.90;2.20;;;;;;;;;;10450328;28;20049;-58
2023/03/26 20:57:01;;;;;;;2.13;1.80;;;;;;;;;;10458189;28;20039;-54
2023/03/26 21:02:02;;;;;;;4.43;1.80;;;;;;;;;;10462639;28;20116;-55
2023/03/26 21:07:03;;;;;;;3.58;1.90;;;;;;;;;;10459442;28;20033;-57
2023/03/26 21:12:13;;;;;;;6.70;1.98;;;;;;;;;;10449281;28;20425;-68
2023/03/26 21:17:21;;;;;;;5.63;2.17;;;;;;;;;;10443809;28;20481;-67
2023/03/26 21:22:52;;;;;;;5.60;2.17;;;;;;;;;;10430909;28;20508;-69
2023/03/26 21:28:20;;;;;;;3.08;2.00;;;;;;;;;;10431752;28;20033;-49
2023/03/26 21:33:21;;;;;;;2.88;1.77;;;;;;;;;;10452312;28;20029;-50
2023/03/26 21:38:23;;;;;;;2.97;2.10;;;;;;;;;;10449083;28;20041;-49
2023/03/26 21:43:24;;;;;;;4.60;2.00;;;;;;;;;;10452566;28;20055;-48
2023/03/26 21:48:27;;;;;;;6.25;2.17;;;;;;;;;;10452539;28;20083;-50
2023/03/26 21:53:28;;;;;;;6.45;2.17;;;;;;;;;;10451863;28;20049;-50
2023/03/26 21:58:55;;;;;;;1.98;1.75;;;;;;;;;;10451952;28;20040;-49
2023/03/26 22:04:09;;;;;;;4.45;1.77;;;;;;;;;;10442238;28;20094;-51
2023/03/26 22:09:11;;;;;;;4.50;2.13;;;;;;;;;;10453234;28;20032;-53
2023/03/26 22:14:13;;;;;;;2.13;1.92;;;;;;;;;;10453023;28;20404;-55
2023/03/26 22:19:13;;;;;;;2.72;1.83;;;;;;;;;;10451796;28;20039;-55
2023/03/26 22:24:14;;;;;;;2.83;1.75;;;;;;;;;;10452852;28;20035;-55
2023/03/26 22:29:15;;;;;;;2.13;1.73;;;;;;;;;;10453417;28;20376;-57
2023/03/26 22:34:16;;;;;;;4.20;1.80;;;;;;;;;;10452084;28;20032;-53
2023/03/26 22:39:17;;;;;;;2.80;2.10;;;;;;;;;;10453082;28;20028;-50
2023/03/26 22:44:17;;;;;;;4.05;1.70;;;;;;;;;;10451418;28;20032;-53
2023/03/26 22:49:18;;;;;;;2.33;1.67;;;;;;;;;;10451630;28;20095;-50
2023/03/26 22:54:19;;;;;;;2.10;1.90;;;;;;;;;;10451534;28;20076;-50
2023/03/26 22:59:19;;;;;;;3.78;1.92;;;;;;;;;;10440114;28;20029;-51
2023/03/26 23:04:25;;;;;;;4.88;1.80;;;;;;;;;;10454633;28;20037;-50
2023/03/26 23:09:26;;;;;;;2.28;1.60;;;;;;;;;;10446777;28;20036;-49
2023/03/26 23:14:27;;;;;;;2.22;1.73;;;;;;;;;;10449912;28;20075;-51
2023/03/26 23:19:28;;;;;;;2.42;1.67;;;;;;;;;;10452184;28;20033;-52
2023/03/26 23:24:29;;;;;;;5.25;1.85;;;;;;;;;;10450337;28;20119;-51
2023/03/26 23:29:30;;;;;;;5.63;1.75;;;;;;;;;;10450072;28;20484;-54
2023/03/26 23:34:31;;;;;;;2.20;1.90;;;;;;;;;;10432333;28;20056;-50
2023/03/26 23:39:32;;;;;;;2.22;1.50;;;;;;;;;;10450401;28;20021;-49
2023/03/26 23:44:33;;;;;;;2.47;1.45;;;;;;;;;;10449429;28;20165;-48
2023/03/26 23:49:33;;;;;;;2.03;1.60;;;;;;;;;;10449451;28;20581;-49
2023/03/26 23:54:34;;;;;;;2.08;1.60;;;;;;;;;;10449760;28;20488;-49
2023/03/26 23:59:35;;;;;;;1.58;1.48;;;;;;;;;;10452795;28;20032;-49
